createdAt,value
2019-01-17T00:00:41.831Z,1.4
2019-01-17T00:01:41.720Z,1.4
2019-01-17T00:02:41.614Z,1.5
2019-01-17T00:05:40.964Z,1.8
2019-01-17T00:13:39.375Z,2.1
2019-01-17T00:17:38.467Z,2.3
2019-01-17T00:25:36.935Z,2.5
2019-01-17T00:30:36.150Z,2.3
2019-01-17T00:31:36.029Z,2.3
2019-01-17T00:32:35.913Z,2.2
2019-01-17T00:33:35.805Z,2.2
2019-01-17T00:34:35.697Z,2.2
2019-01-17T00:35:35.592Z,2.2
2019-01-17T00:36:35.491Z,2.1
2019-01-17T00:37:35.377Z,2.1
2019-01-17T00:38:35.293Z,2.1
2019-01-17T00:39:35.185Z,2
2019-01-17T00:40:35.526Z,2
2019-01-17T00:41:35.411Z,1.9
2019-01-17T00:42:35.293Z,1.9
2019-01-17T00:43:35.243Z,1.8
2019-01-17T00:44:35.147Z,1.8
2019-01-17T00:45:35.046Z,1.8
2019-01-17T00:46:34.931Z,1.7
2019-01-17T00:47:34.820Z,1.7
2019-01-17T00:48:34.702Z,1.7
2019-01-17T00:49:34.605Z,1.7
2019-01-17T00:50:34.927Z,1.6
2019-01-17T00:51:34.807Z,1.6
2019-01-17T00:52:34.693Z,1.6
2019-01-17T00:53:34.569Z,1.6
2019-01-17T00:54:34.491Z,1.6
2019-01-17T00:55:34.376Z,1.6
2019-01-17T00:56:34.271Z,1.5
2019-01-17T00:57:34.181Z,1.5
2019-01-17T00:58:34.075Z,1.5
2019-01-17T00:59:33.955Z,1.5
2019-01-17T01:00:34.269Z,1.5
2019-01-17T01:01:34.201Z,1.5
2019-01-17T01:02:34.075Z,1.4
2019-01-17T01:10:32.475Z,2.1
2019-01-17T01:11:32.369Z,2.1
2019-01-17T01:12:32.268Z,2
2019-01-17T01:13:32.165Z,2
2019-01-17T01:14:32.047Z,1.9
2019-01-17T01:15:31.935Z,1.9
2019-01-17T01:16:31.847Z,1.8
2019-01-17T01:17:31.743Z,1.8
2019-01-17T01:18:31.625Z,1.8
2019-01-17T01:19:31.521Z,1.7
2019-01-17T01:20:31.809Z,1.7
2019-01-17T01:21:31.727Z,1.6
2019-01-17T01:22:31.601Z,1.6
2019-01-17T01:23:31.483Z,1.6
2019-01-17T01:24:31.372Z,1.6
2019-01-17T01:25:31.263Z,1.6
2019-01-17T01:26:31.143Z,1.6
2019-01-17T01:27:31.031Z,1.5
2019-01-17T01:28:30.927Z,1.6
2019-01-17T01:29:30.821Z,1.5
2019-01-17T01:30:31.187Z,1.5
2019-01-17T01:31:31.080Z,1.5
2019-01-17T01:32:31.015Z,1.5
2019-01-17T01:34:30.629Z,1.6
2019-01-17T01:40:29.638Z,1.9
2019-01-17T01:43:28.990Z,2.1
2019-01-17T01:46:28.310Z,2.2
2019-01-17T01:47:28.243Z,2.2
2019-01-17T01:50:28.015Z,2.2
2019-01-17T01:52:27.634Z,2.2
2019-01-17T01:53:27.534Z,2.2
2019-01-17T01:54:27.431Z,2.2
2019-01-17T01:55:27.317Z,2.2
2019-01-17T01:56:27.223Z,2.2
2019-01-17T01:57:27.125Z,2.2
2019-01-17T01:59:26.753Z,2.2
2019-01-17T02:00:27.063Z,2.2
2019-01-17T02:01:26.940Z,2.2
2019-01-17T02:02:26.844Z,2.1
2019-01-17T02:03:26.726Z,2
2019-01-17T02:04:26.615Z,2
2019-01-17T02:05:26.497Z,1.9
2019-01-17T02:06:26.379Z,1.9
2019-01-17T02:07:26.269Z,1.8
2019-01-17T02:08:26.142Z,1.8
2019-01-17T02:09:26.065Z,1.7
2019-01-17T02:10:26.383Z,1.6
2019-01-17T02:11:26.317Z,1.6
2019-01-17T02:12:26.210Z,1.5
2019-01-17T02:13:26.141Z,1.5
2019-01-17T02:20:25.050Z,1.9
2019-01-17T02:21:24.945Z,1.9
2019-01-17T02:22:24.854Z,1.8
2019-01-17T02:23:24.742Z,1.8
2019-01-17T02:24:29.198Z,1.7
2019-01-17T02:25:29.089Z,1.7
2019-01-17T02:26:28.989Z,1.7
2019-01-17T02:27:28.869Z,1.7
2019-01-17T02:28:28.753Z,1.6
2019-01-17T02:29:28.695Z,1.5
2019-01-17T02:30:29.007Z,1.5
2019-01-17T02:31:28.926Z,1.5
2019-01-17T02:32:28.827Z,1.5
2019-01-17T02:33:28.719Z,1.4
2019-01-17T02:34:28.599Z,1.4
2019-01-17T02:35:28.479Z,1.4
2019-01-17T02:36:28.371Z,1.4
2019-01-17T02:37:28.283Z,1.4
2019-01-17T02:38:28.180Z,1.4
2019-01-17T02:39:28.094Z,1.4
2019-01-17T02:40:28.412Z,1.4
2019-01-17T02:41:28.307Z,1.4
2019-01-17T02:42:28.208Z,1.4
2019-01-17T02:43:28.092Z,1.4
2019-01-17T02:44:27.993Z,1.4
2019-01-17T02:45:27.890Z,1.4
2019-01-17T02:46:27.795Z,1.3
2019-01-17T02:47:27.691Z,1.3
2019-01-17T02:48:27.583Z,1.4
2019-01-17T02:49:27.475Z,1.3
2019-01-17T02:50:27.914Z,1.3
2019-01-17T02:51:27.801Z,1.3
2019-01-17T02:52:27.775Z,1.3
2019-01-17T02:53:27.673Z,1.3
2019-01-17T02:54:27.567Z,1.3
2019-01-17T02:55:27.437Z,1.3
2019-01-17T02:56:27.328Z,1.3
2019-01-17T02:57:27.220Z,1.3
2019-01-17T02:58:27.114Z,1.3
2019-01-17T02:59:27.033Z,1.3
2019-01-17T03:00:27.341Z,1.3
2019-01-17T03:01:27.235Z,1.3
2019-01-17T03:02:27.136Z,1.3
2019-01-17T03:03:27.024Z,1.3
2019-01-17T03:04:26.901Z,1.3
2019-01-17T03:05:26.845Z,1.3
2019-01-17T03:06:26.739Z,1.3
2019-01-17T03:07:26.680Z,1.2
2019-01-17T03:08:26.590Z,1.2
2019-01-17T03:09:26.492Z,1.2
2019-01-17T03:10:26.802Z,1.2
2019-01-17T03:11:26.718Z,1.1
2019-01-17T03:12:26.613Z,1.1
2019-01-17T03:13:26.498Z,1.1
2019-01-17T03:14:26.385Z,1.1
2019-01-17T03:15:26.267Z,1.1
2019-01-17T03:16:26.175Z,1.1
2019-01-17T03:17:26.101Z,1
2019-01-17T03:18:26.042Z,1
2019-01-17T03:19:25.977Z,1
2019-01-17T03:20:26.304Z,1
2019-01-17T03:21:26.217Z,1
2019-01-17T03:22:26.105Z,1
2019-01-17T03:30:24.643Z,1.6
2019-01-17T03:31:24.594Z,1.5
2019-01-17T03:32:24.613Z,1.5
2019-01-17T03:33:24.547Z,1.4
2019-01-17T03:34:24.556Z,1.4
2019-01-17T03:35:24.472Z,1.4
2019-01-17T03:36:24.382Z,1.4
2019-01-17T03:37:24.268Z,1.4
2019-01-17T03:38:24.193Z,1.3
2019-01-17T03:39:24.093Z,1.3
2019-01-17T03:40:24.455Z,1.3
2019-01-17T03:41:24.354Z,1.3
2019-01-17T03:42:24.235Z,1.3
2019-01-17T03:43:24.158Z,1.2
2019-01-17T03:44:24.042Z,1.2
2019-01-17T03:45:23.924Z,1.2
2019-01-17T03:46:23.847Z,1.2
2019-01-17T03:47:23.755Z,1.2
2019-01-17T03:48:23.642Z,1.1
2019-01-17T03:49:23.581Z,1.1
2019-01-17T03:50:23.881Z,1
2019-01-17T03:51:23.784Z,1
2019-01-17T03:52:23.671Z,1
2019-01-17T03:53:23.575Z,1
2019-01-17T03:54:23.506Z,1
2019-01-17T03:55:23.397Z,1
2019-01-17T03:56:23.301Z,1
2019-01-17T03:57:23.227Z,1
2019-01-17T03:58:23.146Z,1
2019-01-17T03:59:23.068Z,0.9
2019-01-17T04:00:23.429Z,0.9
2019-01-17T04:01:23.344Z,0.9
2019-01-17T04:10:21.616Z,1.3
2019-01-17T04:11:21.515Z,1.3
2019-01-17T04:12:21.417Z,1.3
2019-01-17T04:13:21.375Z,1.2
2019-01-17T04:14:21.248Z,1.2
2019-01-17T04:15:21.158Z,1.2
2019-01-17T04:16:21.050Z,1.1
2019-01-17T04:17:20.953Z,1.1
2019-01-17T04:18:20.858Z,1
2019-01-17T04:19:20.748Z,1
2019-01-17T04:20:21.135Z,1
2019-01-17T04:21:21.043Z,0.9
2019-01-17T04:22:20.944Z,0.8
2019-01-17T04:23:20.856Z,0.8
2019-01-17T04:24:20.792Z,0.7
2019-01-17T04:25:20.705Z,0.7
2019-01-17T04:26:20.625Z,0.7
2019-01-17T04:27:20.524Z,0.6
2019-01-17T04:28:20.402Z,0.6
2019-01-17T04:29:20.296Z,0.6
2019-01-17T04:30:20.625Z,0.6
2019-01-17T04:31:20.552Z,0.6
2019-01-17T04:32:20.469Z,0.6
2019-01-17T04:33:20.460Z,0.5
2019-01-17T04:34:20.406Z,0.5
2019-01-17T04:35:20.282Z,0.5
2019-01-17T04:36:20.172Z,0.5
2019-01-17T04:37:20.054Z,0.5
2019-01-17T04:38:19.942Z,0.6
2019-01-17T04:39:19.830Z,0.6
2019-01-17T04:40:20.145Z,0.5
2019-01-17T04:42:19.860Z,0.5
2019-01-17T04:50:18.312Z,1.1
2019-01-17T04:52:17.972Z,1.2
2019-01-17T04:54:17.600Z,1.2
2019-01-17T05:00:16.608Z,1.3
2019-01-17T05:01:16.508Z,1.2
2019-01-17T05:02:16.425Z,1.2
2019-01-17T05:03:16.314Z,1.1
2019-01-17T05:04:16.207Z,1.1
2019-01-17T05:05:16.116Z,1
2019-01-17T05:06:16.030Z,1
2019-01-17T05:07:15.913Z,0.9
2019-01-17T05:08:15.827Z,0.9
2019-01-17T05:09:15.706Z,0.8
2019-01-17T05:10:16.024Z,0.8
2019-01-17T05:11:15.942Z,0.8
2019-01-17T05:12:15.855Z,0.7
2019-01-17T05:13:15.782Z,0.7
2019-01-17T05:14:15.664Z,0.6
2019-01-17T05:15:15.574Z,0.6
2019-01-17T05:16:15.465Z,0.6
2019-01-17T05:17:15.354Z,0.6
2019-01-17T05:18:15.265Z,0.6
2019-01-17T05:19:15.143Z,0.5
2019-01-17T05:20:15.525Z,0.5
2019-01-17T05:21:15.496Z,0.4
2019-01-17T05:22:15.412Z,0.4
2019-01-17T05:23:15.304Z,0.4
2019-01-17T05:24:15.213Z,0.3
2019-01-17T05:25:15.104Z,0.3
2019-01-17T05:26:15.002Z,0.2
2019-01-17T05:27:14.897Z,0.2
2019-01-17T05:28:14.798Z,0.2
2019-01-17T05:29:14.713Z,0.2
2019-01-17T05:30:15.050Z,0.2
2019-01-17T05:31:17.960Z,0.2
2019-01-17T05:32:17.957Z,0.1
2019-01-17T05:33:17.910Z,0.1
2019-01-17T05:34:17.822Z,0.1
2019-01-17T05:35:17.712Z,0.1
2019-01-17T05:36:17.624Z,0.1
2019-01-17T05:37:17.529Z,0.1
2019-01-17T05:38:17.430Z,0
2019-01-17T05:39:17.340Z,-0.1
2019-01-17T05:40:17.642Z,-0.1
2019-01-17T05:41:17.528Z,-0.1
2019-01-17T05:42:17.476Z,-0.2
2019-01-17T05:43:17.384Z,-0.2
2019-01-17T05:44:17.316Z,-0.2
2019-01-17T05:45:17.190Z,-0.2
2019-01-17T05:46:17.082Z,-0.1
2019-01-17T05:47:16.984Z,-0.2
2019-01-17T05:48:16.872Z,-0.2
2019-01-17T05:49:16.783Z,-0.2
2019-01-17T05:50:17.114Z,-0.2
2019-01-17T05:51:17.018Z,-0.2
2019-01-17T05:52:16.920Z,-0.2
2019-01-17T05:53:16.810Z,-0.2
2019-01-17T05:54:18.363Z,-0.2
2019-01-17T05:55:20.824Z,-0.1
2019-01-17T05:56:20.716Z,-0.1
2019-01-17T05:57:20.616Z,-0.1
2019-01-17T05:58:20.501Z,-0.1
2019-01-17T05:59:20.435Z,-0.1
2019-01-17T06:00:20.841Z,-0.1
2019-01-17T06:01:20.718Z,-0.2
2019-01-17T06:02:20.623Z,-0.2
2019-01-17T06:03:20.503Z,-0.3
2019-01-17T06:04:20.389Z,-0.3
2019-01-17T06:05:20.302Z,-0.3
2019-01-17T06:06:20.211Z,-0.4
2019-01-17T06:07:20.098Z,-0.4
2019-01-17T06:08:19.975Z,-0.4
2019-01-17T06:09:19.869Z,-0.4
2019-01-17T06:10:20.207Z,-0.5
2019-01-17T06:11:20.093Z,-0.5
2019-01-17T06:12:19.974Z,-0.5
2019-01-17T06:13:19.866Z,-0.5
2019-01-17T06:14:19.758Z,-0.5
2019-01-17T06:15:19.648Z,-0.4
2019-01-17T06:16:19.550Z,-0.4
2019-01-17T06:17:19.437Z,-0.5
2019-01-17T06:18:19.322Z,-0.4
2019-01-17T06:19:19.216Z,-0.5
2019-01-17T06:20:19.558Z,-0.5
2019-01-17T06:21:19.450Z,-0.5
2019-01-17T06:22:19.331Z,-0.6
2019-01-17T06:23:19.212Z,-0.6
2019-01-17T06:24:19.102Z,-0.6
2019-01-17T06:25:18.994Z,-0.6
2019-01-17T06:26:18.916Z,-0.6
2019-01-17T06:27:18.804Z,-0.7
2019-01-17T06:28:18.688Z,-0.7
2019-01-17T06:29:18.567Z,-0.7
2019-01-17T06:30:18.857Z,-0.7
2019-01-17T06:31:18.818Z,-0.7
2019-01-17T06:32:18.693Z,-0.7
2019-01-17T06:33:18.620Z,-0.7
2019-01-17T06:34:18.503Z,-0.7
2019-01-17T06:35:18.440Z,-0.7
2019-01-17T06:36:18.321Z,-0.7
2019-01-17T06:37:18.213Z,-0.7
2019-01-17T06:38:18.089Z,-0.7
2019-01-17T06:39:18.001Z,-0.7
2019-01-17T06:40:18.301Z,-0.6
2019-01-17T06:41:18.255Z,-0.6
2019-01-17T06:50:19.990Z,-0.4
2019-01-17T06:51:19.863Z,-0.4
2019-01-17T06:52:19.776Z,-0.4
2019-01-17T06:53:19.651Z,-0.5
2019-01-17T06:54:19.541Z,-0.5
2019-01-17T06:55:19.422Z,-0.6
2019-01-17T06:56:19.317Z,-0.7
2019-01-17T06:57:19.210Z,-0.7
2019-01-17T06:58:19.118Z,-0.7
2019-01-17T06:59:19.020Z,-0.8
2019-01-17T07:00:19.353Z,-0.8
2019-01-17T07:01:19.243Z,-0.8
2019-01-17T07:02:19.144Z,-0.8
2019-01-17T07:03:19.032Z,-0.8
2019-01-17T07:04:18.988Z,-0.8
2019-01-17T07:05:18.859Z,-0.8
2019-01-17T07:06:18.753Z,-0.8
2019-01-17T07:07:18.673Z,-0.8
2019-01-17T07:08:18.553Z,-0.8
2019-01-17T07:09:18.443Z,-0.7
2019-01-17T07:10:18.764Z,-0.7
2019-01-17T07:11:18.650Z,-0.8
2019-01-17T07:12:18.544Z,-0.8
2019-01-17T07:13:18.480Z,-0.7
2019-01-17T07:14:18.373Z,-0.7
2019-01-17T07:15:18.259Z,-0.7
2019-01-17T07:16:18.155Z,-0.7
2019-01-17T07:17:18.052Z,-0.7
2019-01-17T07:18:17.999Z,-0.7
2019-01-17T07:19:17.906Z,-0.6
2019-01-17T07:20:18.224Z,-0.7
2019-01-17T07:21:18.111Z,-0.7
2019-01-17T07:22:18.033Z,-0.6
2019-01-17T07:23:17.933Z,-0.6
2019-01-17T07:24:17.819Z,-0.6
2019-01-17T07:25:17.716Z,-0.6
2019-01-17T07:26:17.596Z,-0.7
2019-01-17T07:27:17.484Z,-0.7
2019-01-17T07:28:17.375Z,-0.7
2019-01-17T07:29:17.299Z,-0.7
2019-01-17T07:30:17.614Z,-0.7
2019-01-17T07:31:17.485Z,-0.6
2019-01-17T07:32:17.377Z,-0.6
2019-01-17T07:33:17.293Z,-0.6
2019-01-17T07:34:17.181Z,-0.6
2019-01-17T07:35:17.098Z,-0.6
2019-01-17T07:36:16.981Z,-0.6
2019-01-17T07:37:16.875Z,-0.6
2019-01-17T07:38:16.793Z,-0.6
2019-01-17T07:39:16.675Z,-0.5
2019-01-17T07:40:16.997Z,-0.5
2019-01-17T07:41:16.887Z,-0.5
2019-01-17T07:42:16.761Z,-0.4
2019-01-17T07:43:16.684Z,-0.4
2019-01-17T07:44:16.578Z,-0.3
2019-01-17T07:45:16.467Z,-0.2
2019-01-17T07:46:16.352Z,-0.1
2019-01-17T07:47:16.235Z,-0.1
2019-01-17T07:48:16.144Z,-0.1
2019-01-17T07:49:16.031Z,0
2019-01-17T07:50:16.355Z,0.1
2019-01-17T07:51:16.234Z,0.2
2019-01-17T08:00:14.401Z,1.2
2019-01-17T08:01:15.682Z,1.2
2019-01-17T08:02:15.559Z,1.1
2019-01-17T08:03:15.431Z,1.2
2019-01-17T08:04:15.328Z,1.3
2019-01-17T08:05:15.215Z,1.2
2019-01-17T08:06:15.148Z,1.2
2019-01-17T08:07:15.037Z,1.3
2019-01-17T08:08:14.979Z,1.3
2019-01-17T08:09:14.901Z,1.5
2019-01-17T08:10:16.093Z,1.6
2019-01-17T08:11:15.985Z,1.6
2019-01-17T08:12:15.877Z,1.7
2019-01-17T08:13:15.771Z,1.7
2019-01-17T08:14:15.691Z,1.7
2019-01-17T08:15:15.609Z,1.7
2019-01-17T08:16:15.515Z,1.7
2019-01-17T08:17:15.439Z,1.8
2019-01-17T08:18:19.369Z,1.8
2019-01-17T08:19:19.287Z,1.8
2019-01-17T08:20:19.579Z,1.9
2019-01-17T08:21:19.473Z,1.8
2019-01-17T08:22:19.351Z,1.9
2019-01-17T08:24:18.984Z,2.1
2019-01-17T08:28:18.090Z,2.5
2019-01-17T08:30:18.451Z,2.7
2019-01-17T08:31:18.355Z,2.7
2019-01-17T08:32:18.227Z,2.7
2019-01-17T08:33:18.119Z,2.7
2019-01-17T08:34:17.997Z,2.8
2019-01-17T08:35:17.898Z,2.8
2019-01-17T08:36:17.797Z,2.8
2019-01-17T08:37:17.681Z,2.9
2019-01-17T08:38:17.589Z,2.9
2019-01-17T08:39:17.523Z,2.9
2019-01-17T08:40:21.103Z,2.8
2019-01-17T08:41:21.025Z,2.8
2019-01-17T08:42:20.923Z,2.9
2019-01-17T08:43:20.819Z,2.8
2019-01-17T08:44:20.709Z,2.8
2019-01-17T08:45:20.631Z,2.8
2019-01-17T08:46:20.535Z,2.8
2019-01-17T08:47:20.441Z,2.8
2019-01-17T08:48:20.353Z,2.8
2019-01-17T08:49:20.243Z,2.8
2019-01-17T08:50:20.598Z,2.8
2019-01-17T08:51:20.499Z,2.9
2019-01-17T08:52:20.393Z,2.9
2019-01-17T08:53:20.276Z,3
2019-01-17T08:54:20.187Z,3
2019-01-17T08:55:20.097Z,3.1
2019-01-17T08:56:19.988Z,3.1
2019-01-17T08:57:19.896Z,3.1
2019-01-17T08:58:19.777Z,3.1
2019-01-17T08:59:19.662Z,3.2
2019-01-17T09:00:20.003Z,3.2
2019-01-17T09:01:19.909Z,3.3
2019-01-17T09:02:19.804Z,3.3
2019-01-17T09:03:19.698Z,3.4
2019-01-17T09:04:19.596Z,3.5
2019-01-17T09:05:19.479Z,3.5
2019-01-17T09:06:19.387Z,3.6
2019-01-17T09:07:19.276Z,3.6
2019-01-17T09:08:19.218Z,3.7
2019-01-17T09:09:19.103Z,3.8
2019-01-17T09:10:19.424Z,3.8
2019-01-17T09:11:19.334Z,3.9
2019-01-17T09:12:19.218Z,4
2019-01-17T09:13:19.099Z,4.1
2019-01-17T09:14:18.980Z,4.2
2019-01-17T09:16:18.627Z,4.4
2019-01-17T09:17:18.515Z,4.5
2019-01-17T09:18:18.408Z,4.6
2019-01-17T09:19:18.299Z,4.6
2019-01-17T09:20:18.622Z,4.7
2019-01-17T09:21:18.510Z,4.7
2019-01-17T09:22:18.426Z,4.8
2019-01-17T09:23:18.316Z,4.9
2019-01-17T09:24:18.214Z,4.9
2019-01-17T09:25:18.120Z,5
2019-01-17T09:26:18.032Z,5.1
2019-01-17T09:27:17.971Z,5.1
2019-01-17T09:28:17.856Z,5.2
2019-01-17T09:29:17.726Z,5.2
2019-01-17T09:30:18.017Z,5.3
2019-01-17T09:31:17.908Z,5.3
2019-01-17T09:32:17.819Z,5.3
2019-01-17T09:33:17.709Z,5.3
2019-01-17T09:34:17.583Z,5.3
2019-01-17T09:35:17.467Z,5.4
2019-01-17T09:36:17.363Z,5.4
2019-01-17T09:37:17.266Z,5.3
2019-01-17T09:38:17.154Z,5.3
2019-01-17T09:39:17.051Z,5.4
2019-01-17T09:40:17.413Z,5.4
2019-01-17T09:41:17.344Z,5.5
2019-01-17T09:42:17.232Z,5.5
2019-01-17T09:43:17.116Z,5.6
2019-01-17T09:44:17.011Z,5.7
2019-01-17T09:45:16.903Z,5.7
2019-01-17T09:46:16.790Z,5.7
2019-01-17T09:47:16.670Z,5.7
2019-01-17T09:48:16.588Z,5.7
2019-01-17T09:49:16.488Z,5.6
2019-01-17T09:50:16.839Z,5.5
2019-01-17T09:51:16.726Z,5.4
2019-01-17T09:52:16.608Z,5.4
2019-01-17T09:53:16.524Z,5.4
2019-01-17T09:54:16.422Z,5.4
2019-01-17T09:55:16.308Z,5.4
2019-01-17T09:56:16.258Z,5.4
2019-01-17T09:57:16.157Z,5.5
2019-01-17T09:58:16.060Z,5.4
2019-01-17T09:59:15.942Z,5.3
2019-01-17T10:00:16.259Z,5.4
2019-01-17T10:01:16.172Z,5.5
2019-01-17T10:02:16.056Z,5.5
2019-01-17T10:03:15.938Z,5.6
2019-01-17T10:04:15.855Z,5.6
2019-01-17T10:05:15.742Z,5.7
2019-01-17T10:06:15.632Z,5.8
2019-01-17T10:07:15.512Z,5.8
2019-01-17T10:08:15.386Z,5.9
2019-01-17T10:09:15.266Z,5.9
2019-01-17T10:10:15.613Z,6
2019-01-17T10:11:15.501Z,6
2019-01-17T10:12:15.384Z,6.1
2019-01-17T10:13:15.271Z,6.2
2019-01-17T10:14:15.164Z,6.2
2019-01-17T10:15:15.087Z,6.3
2019-01-17T10:16:14.990Z,6.3
2019-01-17T10:17:15.137Z,6.3
2019-01-17T10:18:15.020Z,6.3
2019-01-17T10:19:14.913Z,6.3
2019-01-17T10:20:15.272Z,6.3
2019-01-17T10:21:15.148Z,6.4
2019-01-17T10:22:15.044Z,6.4
2019-01-17T10:23:14.934Z,6.4
2019-01-17T10:24:14.827Z,6.4
2019-01-17T10:25:14.744Z,6.4
2019-01-17T10:26:14.654Z,6.4
2019-01-17T10:27:21.074Z,6.3
2019-01-17T10:28:21.026Z,6.4
2019-01-17T10:29:20.922Z,6.3
2019-01-17T10:30:21.298Z,6.2
2019-01-17T10:31:21.202Z,6.3
2019-01-17T10:32:21.088Z,6.2
2019-01-17T10:33:21.002Z,6.3
2019-01-17T10:34:20.917Z,6.2
2019-01-17T10:35:20.803Z,6.2
2019-01-17T10:36:20.702Z,6.3
2019-01-17T10:37:20.577Z,6.3
2019-01-17T10:38:20.460Z,6.3
2019-01-17T10:39:20.360Z,6.3
2019-01-17T10:40:20.692Z,6.3
2019-01-17T10:41:20.598Z,6.4
2019-01-17T10:42:20.472Z,6.4
2019-01-17T10:43:20.346Z,6.5
2019-01-17T10:44:20.236Z,6.5
2019-01-17T10:45:20.137Z,6.5
2019-01-17T10:46:20.035Z,6.6
2019-01-17T10:47:19.906Z,6.6
2019-01-17T10:48:19.822Z,6.6
2019-01-17T10:49:19.728Z,6.7
2019-01-17T10:50:20.026Z,6.6
2019-01-17T10:51:19.934Z,6.7
2019-01-17T10:52:19.820Z,6.7
2019-01-17T10:53:19.699Z,6.8
2019-01-17T10:54:19.590Z,6.8
2019-01-17T10:55:19.497Z,6.8
2019-01-17T10:56:19.416Z,6.8
2019-01-17T10:57:19.340Z,6.9
2019-01-17T10:58:19.228Z,7
2019-01-17T10:59:19.152Z,7.1
2019-01-17T11:00:19.512Z,7.1
2019-01-17T11:01:19.449Z,7.2
2019-01-17T11:02:19.332Z,7.2
2019-01-17T11:03:19.214Z,7.2
2019-01-17T11:04:19.128Z,7.3
2019-01-17T11:05:19.045Z,7.3
2019-01-17T11:06:18.930Z,7.3
2019-01-17T11:07:18.833Z,7.3
2019-01-17T11:08:18.732Z,7.2
2019-01-17T11:09:18.630Z,7.2
2019-01-17T11:10:19.014Z,7.2
2019-01-17T11:11:18.898Z,7.2
2019-01-17T11:12:18.806Z,7.2
2019-01-17T11:13:18.704Z,7.2
2019-01-17T11:14:18.582Z,7.2
2019-01-17T11:15:18.472Z,7.2
2019-01-17T11:16:18.398Z,7.2
2019-01-17T11:17:18.286Z,7.2
2019-01-17T11:18:18.200Z,7.2
2019-01-17T11:19:18.084Z,7.1
2019-01-17T11:20:18.384Z,7.1
2019-01-17T11:21:18.275Z,7.1
2019-01-17T11:22:18.146Z,7
2019-01-17T11:23:18.026Z,7.1
2019-01-17T11:24:17.956Z,7.1
2019-01-17T11:25:17.856Z,7
2019-01-17T11:26:17.762Z,7.1
2019-01-17T11:27:17.658Z,7.2
2019-01-17T11:28:17.596Z,7.1
2019-01-17T11:29:17.522Z,7.2
2019-01-17T11:30:17.860Z,7.1
2019-01-17T11:31:17.747Z,7.3
2019-01-17T11:32:17.638Z,7.3
2019-01-17T11:33:17.578Z,7.2
2019-01-17T11:34:17.490Z,7.3
2019-01-17T11:35:17.382Z,7.2
2019-01-17T11:36:17.279Z,7.2
2019-01-17T11:37:17.160Z,7.2
2019-01-17T11:38:17.052Z,7.2
2019-01-17T11:39:16.944Z,7.3
2019-01-17T11:40:17.282Z,7.1
2019-01-17T11:41:17.174Z,7.1
2019-01-17T11:42:17.046Z,7.1
2019-01-17T11:43:16.940Z,7.1
2019-01-17T11:44:16.832Z,7.1
2019-01-17T11:45:16.742Z,7.1
2019-01-17T11:46:16.629Z,7.1
2019-01-17T11:47:16.533Z,7
2019-01-17T11:48:16.418Z,7
2019-01-17T11:49:16.314Z,7
2019-01-17T11:50:16.666Z,6.9
2019-01-17T11:51:16.544Z,7
2019-01-17T11:52:16.427Z,7
2019-01-17T11:53:16.305Z,7
2019-01-17T11:54:16.206Z,7
2019-01-17T11:55:16.132Z,7
2019-01-17T11:56:16.020Z,7
2019-01-17T11:57:15.912Z,7
2019-01-17T11:58:15.818Z,7
2019-01-17T11:59:15.712Z,7.1
2019-01-17T12:00:16.085Z,7
2019-01-17T12:01:16.011Z,7
2019-01-17T12:02:15.934Z,7
2019-01-17T12:03:15.859Z,7
2019-01-17T12:04:15.744Z,7
2019-01-17T12:05:15.644Z,6.9
2019-01-17T12:06:15.542Z,6.8
2019-01-17T12:07:15.426Z,6.8
2019-01-17T12:08:15.318Z,6.7
2019-01-17T12:09:15.213Z,6.7
2019-01-17T12:10:15.516Z,6.7
2019-01-17T12:11:15.438Z,6.7
2019-01-17T12:12:15.326Z,6.6
2019-01-17T12:13:18.152Z,6.6
2019-01-17T12:14:18.044Z,6.6
2019-01-17T12:15:17.951Z,6.6
2019-01-17T12:16:17.861Z,6.6
2019-01-17T12:17:17.735Z,6.6
2019-01-17T12:18:17.621Z,6.6
2019-01-17T12:19:17.494Z,6.5
2019-01-17T12:20:17.810Z,6.5
2019-01-17T12:21:17.745Z,6.5
2019-01-17T12:22:17.637Z,6.5
2019-01-17T12:23:17.531Z,6.5
2019-01-17T12:24:17.445Z,6.6
2019-01-17T12:25:17.337Z,6.5
2019-01-17T12:26:17.225Z,6.5
2019-01-17T12:27:18.608Z,6.4
2019-01-17T12:28:18.507Z,6.4
2019-01-17T12:29:18.417Z,6.4
2019-01-17T12:30:18.729Z,6.5
2019-01-17T12:31:18.617Z,6.4
2019-01-17T12:32:18.532Z,6.4
2019-01-17T12:33:18.413Z,6.4
2019-01-17T12:34:18.440Z,6.4
2019-01-17T12:35:18.334Z,6.3
2019-01-17T12:36:18.203Z,6.2
2019-01-17T12:37:18.121Z,6.3
2019-01-17T12:38:17.999Z,6.3
2019-01-17T12:39:17.879Z,6.3
2019-01-17T12:40:18.181Z,6.2
2019-01-17T12:41:18.054Z,6.2
2019-01-17T12:42:17.954Z,6.2
2019-01-17T12:43:17.877Z,6.2
2019-01-17T12:44:17.764Z,6.2
2019-01-17T12:45:17.659Z,6.2
2019-01-17T12:46:17.569Z,6.2
2019-01-17T12:47:17.475Z,6.2
2019-01-17T12:48:17.373Z,6.2
2019-01-17T12:49:17.262Z,6.2
2019-01-17T12:50:17.571Z,6.2
2019-01-17T12:51:17.467Z,6.2
2019-01-17T12:52:17.361Z,6.2
2019-01-17T12:53:17.278Z,6.2
2019-01-17T12:54:17.167Z,6.2
2019-01-17T12:55:17.089Z,6.2
2019-01-17T12:56:17.002Z,6.2
2019-01-17T12:57:16.899Z,6.2
2019-01-17T12:58:16.797Z,6.2
2019-01-17T12:59:16.688Z,6.2
2019-01-17T13:00:17.013Z,6.3
2019-01-17T13:01:16.907Z,6.2
2019-01-17T13:02:16.812Z,6.3
2019-01-17T13:03:16.721Z,6.3
2019-01-17T13:04:16.651Z,6.4
2019-01-17T13:05:16.575Z,6.5
2019-01-17T13:06:16.467Z,6.5
2019-01-17T13:07:16.383Z,6.6
2019-01-17T13:08:16.283Z,6.6
2019-01-17T13:09:16.177Z,6.5
2019-01-17T13:10:16.495Z,6.6
2019-01-17T13:11:16.383Z,6.7
2019-01-17T13:12:16.289Z,6.7
2019-01-17T13:13:16.179Z,6.7
2019-01-17T13:14:16.065Z,6.7
2019-01-17T13:15:15.956Z,6.7
2019-01-17T13:16:15.833Z,6.7
2019-01-17T13:17:15.737Z,6.7
2019-01-17T13:18:15.622Z,6.6
2019-01-17T13:19:15.519Z,6.6
2019-01-17T13:20:15.835Z,6.5
2019-01-17T13:21:15.723Z,6.5
2019-01-17T13:22:15.625Z,6.5
2019-01-17T13:23:15.523Z,6.5
2019-01-17T13:24:15.413Z,6.4
2019-01-17T13:25:15.321Z,6.5
2019-01-17T13:26:15.204Z,6.4
2019-01-17T13:27:15.147Z,6.3
2019-01-17T13:28:15.072Z,6.4
2019-01-17T13:29:14.979Z,6.4
2019-01-17T13:30:15.289Z,6.4
2019-01-17T13:31:15.165Z,6.4
2019-01-17T13:32:15.045Z,6.3
2019-01-17T13:33:14.945Z,6.4
2019-01-17T13:34:14.857Z,6.4
2019-01-17T13:35:14.751Z,6.4
2019-01-17T13:36:14.641Z,6.3
2019-01-17T13:37:14.529Z,6.2
2019-01-17T13:38:14.470Z,6.2
2019-01-17T13:39:14.377Z,6.1
2019-01-17T13:40:14.699Z,6.1
2019-01-17T13:41:14.591Z,6
2019-01-17T13:42:20.670Z,6
2019-01-17T13:43:20.861Z,6
2019-01-17T13:44:20.753Z,6
2019-01-17T13:45:20.629Z,6.1
2019-01-17T13:46:20.537Z,6
2019-01-17T13:47:20.441Z,6
2019-01-17T13:48:20.348Z,6
2019-01-17T13:49:20.241Z,5.9
2019-01-17T13:50:20.573Z,5.9
2019-01-17T13:51:20.459Z,5.9
2019-01-17T13:52:20.351Z,5.9
2019-01-17T13:53:20.251Z,5.9
2019-01-17T13:54:20.151Z,5.9
2019-01-17T13:55:20.045Z,5.8
2019-01-17T13:56:19.929Z,5.8
2019-01-17T13:57:19.825Z,5.8
2019-01-17T13:58:19.724Z,5.7
2019-01-17T13:59:19.636Z,5.6
2019-01-17T14:00:19.971Z,5.5
2019-01-17T14:01:19.914Z,5.5
2019-01-17T14:02:19.801Z,5.4
2019-01-17T14:03:19.740Z,5.4
2019-01-17T14:04:19.651Z,5.4
2019-01-17T14:05:19.542Z,5.2
2019-01-17T14:06:19.455Z,5.1
2019-01-17T14:07:19.353Z,5.1
2019-01-17T14:08:19.239Z,5.2
2019-01-17T14:09:19.211Z,5.1
2019-01-17T14:10:19.552Z,5.1
2019-01-17T14:11:19.441Z,5.1
2019-01-17T14:12:19.335Z,5.1
2019-01-17T14:13:19.227Z,5.1
2019-01-17T14:14:19.113Z,5.1
2019-01-17T14:15:19.056Z,5
2019-01-17T14:16:18.951Z,4.9
2019-01-17T14:17:18.837Z,4.9
2019-01-17T14:18:18.755Z,4.9
2019-01-17T14:19:18.674Z,4.9
2019-01-17T14:20:19.015Z,4.9
2019-01-17T14:21:25.303Z,4.9
2019-01-17T14:22:25.590Z,4.9
2019-01-17T14:23:25.485Z,4.8
2019-01-17T14:24:25.399Z,4.6
2019-01-17T14:25:25.314Z,4.5
2019-01-17T14:26:25.255Z,4.5
2019-01-17T14:27:25.155Z,4.5
2019-01-17T14:28:25.249Z,4.5
2019-01-17T14:29:25.139Z,4.5
2019-01-17T14:30:25.523Z,4.5
2019-01-17T14:31:25.440Z,4.4
2019-01-17T14:32:25.326Z,4.4
2019-01-17T14:33:25.210Z,4.4
2019-01-17T14:34:25.119Z,4.3
2019-01-17T14:35:25.028Z,4.2
2019-01-17T14:36:24.889Z,4.3
2019-01-17T14:37:24.806Z,4.3
2019-01-17T14:38:24.705Z,4.2
2019-01-17T14:39:24.602Z,4.2
2019-01-17T14:40:24.931Z,4
2019-01-17T14:41:24.882Z,4
2019-01-17T14:42:24.787Z,4
2019-01-17T14:43:24.671Z,4
2019-01-17T14:44:24.571Z,4
2019-01-17T14:45:24.465Z,4.1
2019-01-17T14:46:24.359Z,4.1
2019-01-17T14:47:24.282Z,4.1
2019-01-17T14:48:24.191Z,4.1
2019-01-17T14:49:24.095Z,4.1
2019-01-17T14:50:24.397Z,4.1
2019-01-17T14:51:24.275Z,4.2
2019-01-17T14:52:24.163Z,4.1
2019-01-17T14:53:24.071Z,4.1
2019-01-17T14:54:23.967Z,4.1
2019-01-17T14:55:23.865Z,4.1
2019-01-17T14:56:23.770Z,4.1
2019-01-17T14:57:23.656Z,4
2019-01-17T14:58:23.559Z,3.8
2019-01-17T14:59:23.523Z,3.7
2019-01-17T15:00:24.262Z,3.8
2019-01-17T15:01:24.249Z,3.8
2019-01-17T15:02:24.199Z,3.8
2019-01-17T15:03:24.394Z,3.8
2019-01-17T15:04:24.616Z,3.8
2019-01-17T15:05:24.509Z,3.8
2019-01-17T15:06:24.425Z,3.7
2019-01-17T15:07:24.362Z,3.7
2019-01-17T15:08:24.259Z,3.7
2019-01-17T15:09:24.154Z,3.7
2019-01-17T15:10:24.470Z,3.6
2019-01-17T15:11:24.343Z,3.5
2019-01-17T15:12:24.238Z,3.5
2019-01-17T15:13:24.132Z,3.5
2019-01-17T15:14:24.017Z,3.5
2019-01-17T15:15:23.922Z,3.5
2019-01-17T15:16:23.836Z,3.4
2019-01-17T15:17:23.731Z,3.4
2019-01-17T15:18:23.646Z,3.4
2019-01-17T15:19:23.532Z,3.3
2019-01-17T15:20:23.873Z,3.3
2019-01-17T15:21:23.763Z,3.3
2019-01-17T15:22:23.646Z,3.2
2019-01-17T15:23:23.574Z,3.2
2019-01-17T15:24:23.592Z,3.2
2019-01-17T15:25:23.502Z,3.2
2019-01-17T15:26:23.399Z,3.3
2019-01-17T15:27:27.983Z,3.2
2019-01-17T15:28:27.924Z,3.2